sensor_id;sensor_type;location;lat;lon;timestamp;temperature;humidity
64918;HTU21D;52176;44.858;38.372;2023-02-01T00:02:01;3.08;85.97
64918;HTU21D;52176;44.858;38.372;2023-02-01T00:04:27;3.03;85.99
64918;HTU21D;52176;44.858;38.372;2023-02-01T00:06:53;3.03;86.03
64918;HTU21D;52176;44.858;38.372;2023-02-01T00:09:19;3.03;86.06
64918;HTU21D;52176;44.858;38.372;2023-02-01T00:11:45;3.02;86.06
64918;HTU21D;52176;44.858;38.372;2023-02-01T00:14:11;3.04;86.06
64918;HTU21D;52176;44.858;38.372;2023-02-01T00:16:37;3.03;86.06
64918;HTU21D;52176;44.858;38.372;2023-02-01T00:19:12;3.03;86.10
64918;HTU21D;52176;44.858;38.372;2023-02-01T00:21:38;3.01;86.04
64918;HTU21D;52176;44.858;38.372;2023-02-01T00:24:04;3.00;86.06
64918;HTU21D;52176;44.858;38.372;2023-02-01T00:26:33;2.97;86.09
64918;HTU21D;52176;44.858;38.372;2023-02-01T00:29:00;2.96;86.12
64918;HTU21D;52176;44.858;38.372;2023-02-01T00:31:27;2.95;86.14
64918;HTU21D;52176;44.858;38.372;2023-02-01T00:33:53;2.91;86.17
64918;HTU21D;52176;44.858;38.372;2023-02-01T00:36:19;2.91;86.20
64918;HTU21D;52176;44.858;38.372;2023-02-01T00:38:45;2.93;86.22
64918;HTU21D;52176;44.858;38.372;2023-02-01T00:41:17;2.93;86.23
64918;HTU21D;52176;44.858;38.372;2023-02-01T00:43:43;2.93;86.20
64918;HTU21D;52176;44.858;38.372;2023-02-01T00:46:11;2.93;86.20
64918;HTU21D;52176;44.858;38.372;2023-02-01T00:48:38;2.90;86.20
64918;HTU21D;52176;44.858;38.372;2023-02-01T00:51:10;2.90;86.24
64918;HTU21D;52176;44.858;38.372;2023-02-01T00:53:36;2.89;86.22
64918;HTU21D;52176;44.858;38.372;2023-02-01T00:56:02;2.88;86.25
64918;HTU21D;52176;44.858;38.372;2023-02-01T00:58:29;2.86;86.25
64918;HTU21D;52176;44.858;38.372;2023-02-01T01:01:11;2.84;86.25
64918;HTU21D;52176;44.858;38.372;2023-02-01T01:03:42;2.80;86.32
64918;HTU21D;52176;44.858;38.372;2023-02-01T01:06:22;2.81;86.32
64918;HTU21D;52176;44.858;38.372;2023-02-01T01:08:51;2.79;86.32
64918;HTU21D;52176;44.858;38.372;2023-02-01T01:11:23;2.78;86.35
64918;HTU21D;52176;44.858;38.372;2023-02-01T01:13:51;2.75;86.35
64918;HTU21D;52176;44.858;38.372;2023-02-01T01:16:19;2.75;86.34
64918;HTU21D;52176;44.858;38.372;2023-02-01T01:18:46;2.72;86.36
64918;HTU21D;52176;44.858;38.372;2023-02-01T01:21:14;2.70;86.42
64918;HTU21D;52176;44.858;38.372;2023-02-01T01:23:40;2.69;86.42
64918;HTU21D;52176;44.858;38.372;2023-02-01T01:26:08;2.66;86.43
64918;HTU21D;52176;44.858;38.372;2023-02-01T01:28:34;2.62;86.43
64918;HTU21D;52176;44.858;38.372;2023-02-01T01:31:00;2.61;86.51
64918;HTU21D;52176;44.858;38.372;2023-02-01T01:33:26;2.61;86.54
64918;HTU21D;52176;44.858;38.372;2023-02-01T01:35:52;2.59;86.54
64918;HTU21D;52176;44.858;38.372;2023-02-01T01:38:18;2.60;86.51
64918;HTU21D;52176;44.858;38.372;2023-02-01T01:40:47;2.57;86.54
64918;HTU21D;52176;44.858;38.372;2023-02-01T01:43:18;2.56;86.56
64918;HTU21D;52176;44.858;38.372;2023-02-01T01:45:45;2.55;86.59
64918;HTU21D;52176;44.858;38.372;2023-02-01T01:48:28;2.55;86.60
64918;HTU21D;52176;44.858;38.372;2023-02-01T01:51:03;2.55;86.58
64918;HTU21D;52176;44.858;38.372;2023-02-01T01:53:37;2.57;86.54
64918;HTU21D;52176;44.858;38.372;2023-02-01T01:56:04;2.56;86.54
64918;HTU21D;52176;44.858;38.372;2023-02-01T01:58:33;2.56;86.58
64918;HTU21D;52176;44.858;38.372;2023-02-01T02:00:59;2.57;86.57
64918;HTU21D;52176;44.858;38.372;2023-02-01T02:03:33;2.58;86.58
64918;HTU21D;52176;44.858;38.372;2023-02-01T02:06:02;2.57;86.56
64918;HTU21D;52176;44.858;38.372;2023-02-01T02:08:29;2.56;86.55
64918;HTU21D;52176;44.858;38.372;2023-02-01T02:10:55;2.55;86.58
64918;HTU21D;52176;44.858;38.372;2023-02-01T02:13:36;2.54;86.57
64918;HTU21D;52176;44.858;38.372;2023-02-01T02:16:19;2.53;86.59
64918;HTU21D;52176;44.858;38.372;2023-02-01T02:27:51;2.50;86.59
64918;HTU21D;52176;44.858;38.372;2023-02-01T02:36:26;2.46;86.55
64918;HTU21D;52176;44.858;38.372;2023-02-01T02:38:49;2.42;86.50
64918;HTU21D;52176;44.858;38.372;2023-02-01T02:41:35;2.38;86.46
64918;HTU21D;52176;44.858;38.372;2023-02-01T02:44:48;2.30;86.49
64918;HTU21D;52176;44.858;38.372;2023-02-01T02:47:41;2.25;86.55
64918;HTU21D;52176;44.858;38.372;2023-02-01T02:50:25;2.24;86.61
64918;HTU21D;52176;44.858;38.372;2023-02-01T02:53:18;2.22;86.60
64918;HTU21D;52176;44.858;38.372;2023-02-01T02:56:06;2.20;86.57
64918;HTU21D;52176;44.858;38.372;2023-02-01T02:58:52;2.15;86.60
64918;HTU21D;52176;44.858;38.372;2023-02-01T03:01:39;2.14;86.64
64918;HTU21D;52176;44.858;38.372;2023-02-01T03:04:24;2.11;86.66
64918;HTU21D;52176;44.858;38.372;2023-02-01T03:06:52;2.12;86.73
64918;HTU21D;52176;44.858;38.372;2023-02-01T03:09:26;2.14;86.74
64918;HTU21D;52176;44.858;38.372;2023-02-01T03:11:58;2.17;86.67
64918;HTU21D;52176;44.858;38.372;2023-02-01T03:14:49;2.16;86.54
64918;HTU21D;52176;44.858;38.372;2023-02-01T03:17:21;2.13;86.59
64918;HTU21D;52176;44.858;38.372;2023-02-01T03:19:50;2.12;86.64
64918;HTU21D;52176;44.858;38.372;2023-02-01T03:22:23;2.13;86.64
64918;HTU21D;52176;44.858;38.372;2023-02-01T03:25:05;2.13;86.63
64918;HTU21D;52176;44.858;38.372;2023-02-01T03:27:41;2.13;86.66
64918;HTU21D;52176;44.858;38.372;2023-02-01T03:30:21;2.13;86.68
64918;HTU21D;52176;44.858;38.372;2023-02-01T03:32:51;2.14;86.64
64918;HTU21D;52176;44.858;38.372;2023-02-01T03:41:32;2.17;86.68
64918;HTU21D;52176;44.858;38.372;2023-02-01T03:43:47;2.16;86.67
64918;HTU21D;52176;44.858;38.372;2023-02-01T03:46:21;2.17;86.69
64918;HTU21D;52176;44.858;38.372;2023-02-01T03:48:48;2.17;86.57
64918;HTU21D;52176;44.858;38.372;2023-02-01T03:51:16;2.15;86.53
64918;HTU21D;52176;44.858;38.372;2023-02-01T03:53:43;2.14;86.58
64918;HTU21D;52176;44.858;38.372;2023-02-01T03:56:12;2.15;86.61
64918;HTU21D;52176;44.858;38.372;2023-02-01T03:58:39;2.14;86.64
64918;HTU21D;52176;44.858;38.372;2023-02-01T04:01:05;2.12;86.61
64918;HTU21D;52176;44.858;38.372;2023-02-01T04:03:35;2.11;86.60
64918;HTU21D;52176;44.858;38.372;2023-02-01T04:06:01;2.11;86.69
64918;HTU21D;52176;44.858;38.372;2023-02-01T04:08:28;2.11;86.69
64918;HTU21D;52176;44.858;38.372;2023-02-01T04:10:54;2.11;86.72
64918;HTU21D;52176;44.858;38.372;2023-02-01T04:13:20;2.12;86.71
64918;HTU21D;52176;44.858;38.372;2023-02-01T04:15:47;2.13;86.72
64918;HTU21D;52176;44.858;38.372;2023-02-01T04:18:15;2.12;86.69
64918;HTU21D;52176;44.858;38.372;2023-02-01T04:20:42;2.11;86.74
64918;HTU21D;52176;44.858;38.372;2023-02-01T04:23:08;2.10;86.71
64918;HTU21D;52176;44.858;38.372;2023-02-01T04:25:34;2.06;86.63
64918;HTU21D;52176;44.858;38.372;2023-02-01T04:28:00;2.03;86.73
64918;HTU21D;52176;44.858;38.372;2023-02-01T04:30:26;2.02;86.75
64918;HTU21D;52176;44.858;38.372;2023-02-01T04:32:52;2.01;86.75
64918;HTU21D;52176;44.858;38.372;2023-02-01T04:35:17;2.00;86.80
64918;HTU21D;52176;44.858;38.372;2023-02-01T04:37:43;1.98;86.83
64918;HTU21D;52176;44.858;38.372;2023-02-01T04:40:10;1.99;86.87
64918;HTU21D;52176;44.858;38.372;2023-02-01T04:42:36;2.01;86.90
64918;HTU21D;52176;44.858;38.372;2023-02-01T04:45:02;2.02;86.87
64918;HTU21D;52176;44.858;38.372;2023-02-01T04:48:00;2.01;86.83
64918;HTU21D;52176;44.858;38.372;2023-02-01T04:50:26;2.00;86.87
64918;HTU21D;52176;44.858;38.372;2023-02-01T04:52:52;2.01;86.87
64918;HTU21D;52176;44.858;38.372;2023-02-01T04:55:18;1.97;86.85
64918;HTU21D;52176;44.858;38.372;2023-02-01T04:57:44;1.96;86.88
64918;HTU21D;52176;44.858;38.372;2023-02-01T05:00:10;1.93;86.90
64918;HTU21D;52176;44.858;38.372;2023-02-01T05:02:36;1.92;86.97
64918;HTU21D;52176;44.858;38.372;2023-02-01T05:05:03;1.93;87.02
64918;HTU21D;52176;44.858;38.372;2023-02-01T05:07:29;1.94;87.03
64918;HTU21D;52176;44.858;38.372;2023-02-01T05:09:55;1.96;87.06
64918;HTU21D;52176;44.858;38.372;2023-02-01T05:12:21;1.98;87.02
64918;HTU21D;52176;44.858;38.372;2023-02-01T05:15:05;2.03;86.99
64918;HTU21D;52176;44.858;38.372;2023-02-01T05:17:32;2.06;87.03
64918;HTU21D;52176;44.858;38.372;2023-02-01T05:19:57;2.08;86.93
64918;HTU21D;52176;44.858;38.372;2023-02-01T05:22:23;2.10;86.92
64918;HTU21D;52176;44.858;38.372;2023-02-01T05:24:49;2.11;86.90
64918;HTU21D;52176;44.858;38.372;2023-02-01T05:27:15;2.10;86.90
64918;HTU21D;52176;44.858;38.372;2023-02-01T05:29:41;2.10;86.91
64918;HTU21D;52176;44.858;38.372;2023-02-01T05:32:09;2.11;86.93
64918;HTU21D;52176;44.858;38.372;2023-02-01T05:34:35;2.14;86.93
64918;HTU21D;52176;44.858;38.372;2023-02-01T05:37:02;2.16;86.91
64918;HTU21D;52176;44.858;38.372;2023-02-01T05:39:28;2.19;86.88
64918;HTU21D;52176;44.858;38.372;2023-02-01T05:41:54;2.20;86.83
64918;HTU21D;52176;44.858;38.372;2023-02-01T05:44:20;2.16;86.79
64918;HTU21D;52176;44.858;38.372;2023-02-01T05:46:45;2.12;86.78
64918;HTU21D;52176;44.858;38.372;2023-02-01T05:49:11;2.10;86.82
64918;HTU21D;52176;44.858;38.372;2023-02-01T05:51:37;2.10;86.88
64918;HTU21D;52176;44.858;38.372;2023-02-01T05:54:03;2.12;86.93
64918;HTU21D;52176;44.858;38.372;2023-02-01T05:56:29;2.16;86.91
64918;HTU21D;52176;44.858;38.372;2023-02-01T05:58:55;2.17;86.92
64918;HTU21D;52176;44.858;38.372;2023-02-01T06:01:21;2.23;86.94
64918;HTU21D;52176;44.858;38.372;2023-02-01T06:03:46;2.28;86.90
64918;HTU21D;52176;44.858;38.372;2023-02-01T06:06:12;2.35;86.89
64918;HTU21D;52176;44.858;38.372;2023-02-01T06:08:38;2.40;86.83
64918;HTU21D;52176;44.858;38.372;2023-02-01T06:11:06;2.49;86.79
64918;HTU21D;52176;44.858;38.372;2023-02-01T06:13:32;2.54;86.72
64918;HTU21D;52176;44.858;38.372;2023-02-01T06:15:58;2.59;86.64
64918;HTU21D;52176;44.858;38.372;2023-02-01T06:18:25;2.65;86.55
64918;HTU21D;52176;44.858;38.372;2023-02-01T06:20:55;2.65;86.54
64918;HTU21D;52176;44.858;38.372;2023-02-01T06:23:21;2.66;86.57
64918;HTU21D;52176;44.858;38.372;2023-02-01T06:25:57;2.71;86.62
64918;HTU21D;52176;44.858;38.372;2023-02-01T06:28:25;2.74;86.60
64918;HTU21D;52176;44.858;38.372;2023-02-01T06:30:51;2.79;86.52
64918;HTU21D;52176;44.858;38.372;2023-02-01T06:33:16;2.74;86.47
64918;HTU21D;52176;44.858;38.372;2023-02-01T06:35:43;2.66;86.54
64918;HTU21D;52176;44.858;38.372;2023-02-01T06:38:13;2.55;86.64
64918;HTU21D;52176;44.858;38.372;2023-02-01T06:40:40;2.47;86.80
64918;HTU21D;52176;44.858;38.372;2023-02-01T06:43:09;2.44;86.90
64918;HTU21D;52176;44.858;38.372;2023-02-01T06:45:35;2.44;87.06
64918;HTU21D;52176;44.858;38.372;2023-02-01T06:48:01;2.43;87.06
64918;HTU21D;52176;44.858;38.372;2023-02-01T06:50:27;2.41;87.09
64918;HTU21D;52176;44.858;38.372;2023-02-01T06:52:53;2.42;87.10
64918;HTU21D;52176;44.858;38.372;2023-02-01T06:55:25;2.42;87.19
64918;HTU21D;52176;44.858;38.372;2023-02-01T06:57:53;2.40;87.13
64918;HTU21D;52176;44.858;38.372;2023-02-01T07:00:20;2.38;87.13
64918;HTU21D;52176;44.858;38.372;2023-02-01T07:02:46;2.40;87.15
64918;HTU21D;52176;44.858;38.372;2023-02-01T07:05:15;2.44;87.17
64918;HTU21D;52176;44.858;38.372;2023-02-01T07:07:41;2.51;87.14
64918;HTU21D;52176;44.858;38.372;2023-02-01T07:10:08;2.59;87.05
64918;HTU21D;52176;44.858;38.372;2023-02-01T07:12:34;2.66;86.98
64918;HTU21D;52176;44.858;38.372;2023-02-01T07:15:00;2.72;86.88
64918;HTU21D;52176;44.858;38.372;2023-02-01T07:17:28;2.79;86.85
64918;HTU21D;52176;44.858;38.372;2023-02-01T07:19:57;2.86;86.77
64918;HTU21D;52176;44.858;38.372;2023-02-01T07:22:25;2.95;86.70
64918;HTU21D;52176;44.858;38.372;2023-02-01T07:24:52;3.02;86.62
64918;HTU21D;52176;44.858;38.372;2023-02-01T07:27:17;3.13;86.53
64918;HTU21D;52176;44.858;38.372;2023-02-01T07:29:43;3.17;86.40
64918;HTU21D;52176;44.858;38.372;2023-02-01T07:32:09;3.19;86.37
64918;HTU21D;52176;44.858;38.372;2023-02-01T07:34:35;3.23;86.43
64918;HTU21D;52176;44.858;38.372;2023-02-01T07:37:01;3.31;86.44
64918;HTU21D;52176;44.858;38.372;2023-02-01T07:39:27;3.40;86.35
64918;HTU21D;52176;44.858;38.372;2023-02-01T07:41:54;3.48;86.32
64918;HTU21D;52176;44.858;38.372;2023-02-01T07:44:20;3.58;86.26
64918;HTU21D;52176;44.858;38.372;2023-02-01T07:46:49;3.76;86.23
64918;HTU21D;52176;44.858;38.372;2023-02-01T07:49:15;3.98;86.05
64918;HTU21D;52176;44.858;38.372;2023-02-01T07:51:43;4.16;85.76
64918;HTU21D;52176;44.858;38.372;2023-02-01T07:54:09;4.34;85.66
64918;HTU21D;52176;44.858;38.372;2023-02-01T07:56:35;4.49;85.38
64918;HTU21D;52176;44.858;38.372;2023-02-01T07:59:01;4.58;85.28
64918;HTU21D;52176;44.858;38.372;2023-02-01T08:01:28;4.72;85.13
64918;HTU21D;52176;44.858;38.372;2023-02-01T08:03:59;4.97;85.01
64918;HTU21D;52176;44.858;38.372;2023-02-01T08:06:28;5.12;84.64
64918;HTU21D;52176;44.858;38.372;2023-02-01T08:08:54;5.24;84.51
64918;HTU21D;52176;44.858;38.372;2023-02-01T08:11:21;5.42;84.22
64918;HTU21D;52176;44.858;38.372;2023-02-01T08:13:47;5.62;84.06
64918;HTU21D;52176;44.858;38.372;2023-02-01T08:16:15;6.07;83.87
64918;HTU21D;52176;44.858;38.372;2023-02-01T08:18:41;6.36;83.19
64918;HTU21D;52176;44.858;38.372;2023-02-01T08:21:10;6.45;82.91
64918;HTU21D;52176;44.858;38.372;2023-02-01T08:23:37;6.55;82.99
64918;HTU21D;52176;44.858;38.372;2023-02-01T08:26:23;6.78;82.97
64918;HTU21D;52176;44.858;38.372;2023-02-01T08:28:52;7.04;82.42
64918;HTU21D;52176;44.858;38.372;2023-02-01T08:31:20;7.39;81.81
64918;HTU21D;52176;44.858;38.372;2023-02-01T08:33:53;7.68;81.14
64918;HTU21D;52176;44.858;38.372;2023-02-01T08:36:20;7.85;81.04
64918;HTU21D;52176;44.858;38.372;2023-02-01T08:38:46;7.76;81.06
64918;HTU21D;52176;44.858;38.372;2023-02-01T08:41:17;7.64;81.42
64918;HTU21D;52176;44.858;38.372;2023-02-01T08:43:44;7.62;81.58
64918;HTU21D;52176;44.858;38.372;2023-02-01T08:46:10;7.56;81.53
64918;HTU21D;52176;44.858;38.372;2023-02-01T08:48:37;7.43;81.58
64918;HTU21D;52176;44.858;38.372;2023-02-01T08:51:13;7.38;81.79
64918;HTU21D;52176;44.858;38.372;2023-02-01T08:53:41;7.42;81.81
64918;HTU21D;52176;44.858;38.372;2023-02-01T08:56:10;7.62;81.72
64918;HTU21D;52176;44.858;38.372;2023-02-01T08:58:37;7.94;81.17
64918;HTU21D;52176;44.858;38.372;2023-02-01T09:01:05;8.29;80.65
64918;HTU21D;52176;44.858;38.372;2023-02-01T09:03:32;8.66;80.17
64918;HTU21D;52176;44.858;38.372;2023-02-01T09:06:05;8.89;79.62
64918;HTU21D;52176;44.858;38.372;2023-02-01T09:08:32;9.08;79.35
64918;HTU21D;52176;44.858;38.372;2023-02-01T09:11:03;9.23;79.03
64918;HTU21D;52176;44.858;38.372;2023-02-01T09:13:30;9.27;78.48
64918;HTU21D;52176;44.858;38.372;2023-02-01T09:15:56;9.33;78.77
64918;HTU21D;52176;44.858;38.372;2023-02-01T09:18:22;9.42;78.69
64918;HTU21D;52176;44.858;38.372;2023-02-01T09:20:48;9.55;78.59
64918;HTU21D;52176;44.858;38.372;2023-02-01T09:23:14;9.66;78.34
64918;HTU21D;52176;44.858;38.372;2023-02-01T09:25:40;9.76;77.93
64918;HTU21D;52176;44.858;38.372;2023-02-01T09:28:06;9.80;77.93
64918;HTU21D;52176;44.858;38.372;2023-02-01T09:30:35;9.89;77.76
64918;HTU21D;52176;44.858;38.372;2023-02-01T09:33:02;10.01;77.60
64918;HTU21D;52176;44.858;38.372;2023-02-01T09:35:28;10.12;77.18
64918;HTU21D;52176;44.858;38.372;2023-02-01T09:37:55;10.23;77.04
64918;HTU21D;52176;44.858;38.372;2023-02-01T09:40:21;10.34;76.82
64918;HTU21D;52176;44.858;38.372;2023-02-01T09:43:00;10.48;76.36
64918;HTU21D;52176;44.858;38.372;2023-02-01T09:48:24;10.74;75.63
64918;HTU21D;52176;44.858;38.372;2023-02-01T09:50:56;10.82;75.70
64918;HTU21D;52176;44.858;38.372;2023-02-01T09:53:38;10.94;75.46
64918;HTU21D;52176;44.858;38.372;2023-02-01T09:56:18;11.04;75.31
64918;HTU21D;52176;44.858;38.372;2023-02-01T09:58:58;11.10;74.64
64918;HTU21D;52176;44.858;38.372;2023-02-01T10:01:28;11.11;74.89
64918;HTU21D;52176;44.858;38.372;2023-02-01T10:04:09;11.16;74.74
64918;HTU21D;52176;44.858;38.372;2023-02-01T10:15:32;11.25;73.37
64918;HTU21D;52176;44.858;38.372;2023-02-01T10:26:29;11.27;72.81
64918;HTU21D;52176;44.858;38.372;2023-02-01T10:29:02;11.16;73.12
64918;HTU21D;52176;44.858;38.372;2023-02-01T10:31:36;11.04;72.79
64918;HTU21D;52176;44.858;38.372;2023-02-01T10:34:27;11.01;73.22
64918;HTU21D;52176;44.858;38.372;2023-02-01T10:36:56;10.99;72.54
64918;HTU21D;52176;44.858;38.372;2023-02-01T10:39:25;10.95;72.84
64918;HTU21D;52176;44.858;38.372;2023-02-01T10:41:51;10.90;72.73
64918;HTU21D;52176;44.858;38.372;2023-02-01T10:44:22;10.86;72.86
64918;HTU21D;52176;44.858;38.372;2023-02-01T10:46:50;10.81;72.28
64918;HTU21D;52176;44.858;38.372;2023-02-01T10:52:16;10.56;72.06
64918;HTU21D;52176;44.858;38.372;2023-02-01T10:54:43;10.46;72.53
64918;HTU21D;52176;44.858;38.372;2023-02-01T10:57:19;10.43;72.41
64918;HTU21D;52176;44.858;38.372;2023-02-01T10:59:45;10.39;72.34
64918;HTU21D;52176;44.858;38.372;2023-02-01T11:02:27;10.35;72.35
64918;HTU21D;52176;44.858;38.372;2023-02-01T11:05:24;10.23;72.47
64918;HTU21D;52176;44.858;38.372;2023-02-01T11:07:54;10.19;72.70
64918;HTU21D;52176;44.858;38.372;2023-02-01T11:10:41;10.11;72.76
64918;HTU21D;52176;44.858;38.372;2023-02-01T11:13:16;10.07;72.71
64918;HTU21D;52176;44.858;38.372;2023-02-01T11:15:47;10.00;72.62
64918;HTU21D;52176;44.858;38.372;2023-02-01T11:18:26;9.93;72.65
64918;HTU21D;52176;44.858;38.372;2023-02-01T11:20:52;9.85;72.53
64918;HTU21D;52176;44.858;38.372;2023-02-01T11:23:23;9.79;72.78
64918;HTU21D;52176;44.858;38.372;2023-02-01T11:25:55;9.76;72.90
64918;HTU21D;52176;44.858;38.372;2023-02-01T11:28:25;9.75;73.04
64918;HTU21D;52176;44.858;38.372;2023-02-01T11:30:55;9.71;72.71
64918;HTU21D;52176;44.858;38.372;2023-02-01T11:33:25;9.67;73.09
64918;HTU21D;52176;44.858;38.372;2023-02-01T11:35:57;9.65;73.01
64918;HTU21D;52176;44.858;38.372;2023-02-01T11:38:31;9.61;72.77
64918;HTU21D;52176;44.858;38.372;2023-02-01T11:41:30;9.56;72.67
64918;HTU21D;52176;44.858;38.372;2023-02-01T11:44:02;9.52;73.04
64918;HTU21D;52176;44.858;38.372;2023-02-01T11:46:41;9.52;73.26
64918;HTU21D;52176;44.858;38.372;2023-02-01T11:49:39;9.49;73.06
64918;HTU21D;52176;44.858;38.372;2023-02-01T11:54:48;9.39;73.26
64918;HTU21D;52176;44.858;38.372;2023-02-01T12:02:24;9.21;73.49
64918;HTU21D;52176;44.858;38.372;2023-02-01T12:05:24;9.17;73.71
64918;HTU21D;52176;44.858;38.372;2023-02-01T12:08:15;9.08;74.00
64918;HTU21D;52176;44.858;38.372;2023-02-01T12:10:58;9.03;74.28
64918;HTU21D;52176;44.858;38.372;2023-02-01T12:19:15;9.00;74.70
64918;HTU21D;52176;44.858;38.372;2023-02-01T12:27:34;8.83;74.97
64918;HTU21D;52176;44.858;38.372;2023-02-01T12:32:55;8.75;75.25
64918;HTU21D;52176;44.858;38.372;2023-02-01T12:35:37;8.74;75.27
64918;HTU21D;52176;44.858;38.372;2023-02-01T12:43:47;8.65;75.28
64918;HTU21D;52176;44.858;38.372;2023-02-01T12:46:19;8.63;75.12
64918;HTU21D;52176;44.858;38.372;2023-02-01T12:48:57;8.61;75.18
64918;HTU21D;52176;44.858;38.372;2023-02-01T12:51:31;8.57;75.18
64918;HTU21D;52176;44.858;38.372;2023-02-01T12:57:02;8.50;75.25
64918;HTU21D;52176;44.858;38.372;2023-02-01T13:02:23;8.50;75.34
64918;HTU21D;52176;44.858;38.372;2023-02-01T13:04:59;8.46;75.33
64918;HTU21D;52176;44.858;38.372;2023-02-01T13:07:41;8.41;75.36
64918;HTU21D;52176;44.858;38.372;2023-02-01T13:12:57;8.29;75.39
64918;HTU21D;52176;44.858;38.372;2023-02-01T13:15:27;8.22;75.28
64918;HTU21D;52176;44.858;38.372;2023-02-01T13:17:57;8.13;75.54
64918;HTU21D;52176;44.858;38.372;2023-02-01T13:20:32;8.05;75.83
64918;HTU21D;52176;44.858;38.372;2023-02-01T13:23:36;7.97;76.04
64918;HTU21D;52176;44.858;38.372;2023-02-01T13:25:54;7.83;76.34
64918;HTU21D;52176;44.858;38.372;2023-02-01T13:40:07;7.34;77.48
64918;HTU21D;52176;44.858;38.372;2023-02-01T13:42:31;7.27;77.61
64918;HTU21D;52176;44.858;38.372;2023-02-01T13:45:05;7.19;77.81
64918;HTU21D;52176;44.858;38.372;2023-02-01T13:47:40;7.12;77.89
64918;HTU21D;52176;44.858;38.372;2023-02-01T13:50:19;7.05;78.01
64918;HTU21D;52176;44.858;38.372;2023-02-01T13:52:59;6.99;78.14
64918;HTU21D;52176;44.858;38.372;2023-02-01T13:55:36;6.94;78.24
64918;HTU21D;52176;44.858;38.372;2023-02-01T13:58:20;6.88;78.38
64918;HTU21D;52176;44.858;38.372;2023-02-01T14:00:48;6.83;78.37
64918;HTU21D;52176;44.858;38.372;2023-02-01T14:03:22;6.78;78.49
64918;HTU21D;52176;44.858;38.372;2023-02-01T14:08:36;6.69;78.68
64918;HTU21D;52176;44.858;38.372;2023-02-01T14:11:03;6.64;78.72
64918;HTU21D;52176;44.858;38.372;2023-02-01T14:13:38;6.57;78.86
64918;HTU21D;52176;44.858;38.372;2023-02-01T14:21:33;6.43;79.14
64918;HTU21D;52176;44.858;38.372;2023-02-01T14:26:46;6.35;79.21
64918;HTU21D;52176;44.858;38.372;2023-02-01T14:34:34;6.10;79.67
64918;HTU21D;52176;44.858;38.372;2023-02-01T14:37:07;6.00;79.81
64918;HTU21D;52176;44.858;38.372;2023-02-01T14:40:36;5.92;79.96
64918;HTU21D;52176;44.858;38.372;2023-02-01T14:42:48;5.82;79.99
64918;HTU21D;52176;44.858;38.372;2023-02-01T14:50:46;5.54;80.38
64918;HTU21D;52176;44.858;38.372;2023-02-01T14:53:17;5.45;80.48
64918;HTU21D;52176;44.858;38.372;2023-02-01T14:58:56;5.27;80.71
64918;HTU21D;52176;44.858;38.372;2023-02-01T15:01:26;5.23;80.75
64918;HTU21D;52176;44.858;38.372;2023-02-01T15:04:04;5.16;80.84
64918;HTU21D;52176;44.858;38.372;2023-02-01T15:06:42;5.07;81.01
64918;HTU21D;52176;44.858;38.372;2023-02-01T15:11:58;4.91;81.28
64918;HTU21D;52176;44.858;38.372;2023-02-01T15:14:26;4.83;81.28
64918;HTU21D;52176;44.858;38.372;2023-02-01T15:16:53;4.76;81.36
64918;HTU21D;52176;44.858;38.372;2023-02-01T15:19:29;4.68;81.45
64918;HTU21D;52176;44.858;38.372;2023-02-01T15:21:59;4.62;81.52
64918;HTU21D;52176;44.858;38.372;2023-02-01T15:24:28;4.57;81.57
64918;HTU21D;52176;44.858;38.372;2023-02-01T15:26:55;4.51;81.62
64918;HTU21D;52176;44.858;38.372;2023-02-01T15:29:23;4.48;81.67
64918;HTU21D;52176;44.858;38.372;2023-02-01T15:31:53;4.44;81.69
64918;HTU21D;52176;44.858;38.372;2023-02-01T15:34:20;4.42;81.72
64918;HTU21D;52176;44.858;38.372;2023-02-01T15:36:46;4.38;81.75
64918;HTU21D;52176;44.858;38.372;2023-02-01T15:39:14;4.36;81.74
64918;HTU21D;52176;44.858;38.372;2023-02-01T15:41:55;4.30;81.82
64918;HTU21D;52176;44.858;38.372;2023-02-01T15:44:37;4.26;81.89
64918;HTU21D;52176;44.858;38.372;2023-02-01T15:47:26;4.23;81.92
64918;HTU21D;52176;44.858;38.372;2023-02-01T15:49:53;4.17;81.76
64918;HTU21D;52176;44.858;38.372;2023-02-01T15:52:40;4.12;81.86
64918;HTU21D;52176;44.858;38.372;2023-02-01T15:57:56;4.03;81.98
64918;HTU21D;52176;44.858;38.372;2023-02-01T16:02:54;3.98;82.11
64918;HTU21D;52176;44.858;38.372;2023-02-01T16:05:36;3.95;82.16
64918;HTU21D;52176;44.858;38.372;2023-02-01T16:08:13;3.93;82.20
64918;HTU21D;52176;44.858;38.372;2023-02-01T16:10:45;3.90;82.23
64918;HTU21D;52176;44.858;38.372;2023-02-01T16:13:12;3.89;82.26
64918;HTU21D;52176;44.858;38.372;2023-02-01T16:15:39;3.87;82.25
64918;HTU21D;52176;44.858;38.372;2023-02-01T16:18:06;3.86;82.27
64918;HTU21D;52176;44.858;38.372;2023-02-01T16:20:34;3.84;82.33
64918;HTU21D;52176;44.858;38.372;2023-02-01T16:23:02;3.80;82.38
64918;HTU21D;52176;44.858;38.372;2023-02-01T16:25:28;3.78;82.33
64918;HTU21D;52176;44.858;38.372;2023-02-01T16:27:54;3.77;82.36
64918;HTU21D;52176;44.858;38.372;2023-02-01T16:30:20;3.74;82.39
64918;HTU21D;52176;44.858;38.372;2023-02-01T16:33:00;3.69;82.41
64918;HTU21D;52176;44.858;38.372;2023-02-01T16:35:32;3.65;82.44
64918;HTU21D;52176;44.858;38.372;2023-02-01T16:38:14;3.60;82.47
64918;HTU21D;52176;44.858;38.372;2023-02-01T16:40:42;3.56;82.57
64918;HTU21D;52176;44.858;38.372;2023-02-01T16:43:15;3.53;82.70
64918;HTU21D;52176;44.858;38.372;2023-02-01T16:45:43;3.47;82.75
64918;HTU21D;52176;44.858;38.372;2023-02-01T16:48:30;3.43;82.78
64918;HTU21D;52176;44.858;38.372;2023-02-01T16:50:59;3.36;82.76
64918;HTU21D;52176;44.858;38.372;2023-02-01T16:53:27;3.32;82.86
64918;HTU21D;52176;44.858;38.372;2023-02-01T16:55:55;3.28;82.91
64918;HTU21D;52176;44.858;38.372;2023-02-01T16:58:26;3.27;82.96
64918;HTU21D;52176;44.858;38.372;2023-02-01T17:00:53;3.24;83.00
64918;HTU21D;52176;44.858;38.372;2023-02-01T17:03:20;3.24;83.02
64918;HTU21D;52176;44.858;38.372;2023-02-01T17:05:49;3.19;83.04
64918;HTU21D;52176;44.858;38.372;2023-02-01T17:08:20;3.15;83.06
64918;HTU21D;52176;44.858;38.372;2023-02-01T17:10:47;3.12;83.08
64918;HTU21D;52176;44.858;38.372;2023-02-01T17:13:15;3.06;83.10
64918;HTU21D;52176;44.858;38.372;2023-02-01T17:15:48;3.01;83.15
64918;HTU21D;52176;44.858;38.372;2023-02-01T17:18:16;2.98;83.15
64918;HTU21D;52176;44.858;38.372;2023-02-01T17:20:42;2.95;83.17
64918;HTU21D;52176;44.858;38.372;2023-02-01T17:23:08;2.91;83.23
64918;HTU21D;52176;44.858;38.372;2023-02-01T17:25:34;2.88;83.26
64918;HTU21D;52176;44.858;38.372;2023-02-01T17:28:00;2.85;83.29
64918;HTU21D;52176;44.858;38.372;2023-02-01T17:30:26;2.81;83.30
64918;HTU21D;52176;44.858;38.372;2023-02-01T17:32:52;2.76;83.28
64918;HTU21D;52176;44.858;38.372;2023-02-01T17:35:25;2.73;83.32
64918;HTU21D;52176;44.858;38.372;2023-02-01T17:37:52;2.69;83.34
64918;HTU21D;52176;44.858;38.372;2023-02-01T17:40:18;2.66;83.41
64918;HTU21D;52176;44.858;38.372;2023-02-01T17:42:44;2.64;83.44